Airport Name : Wright Patterson AFB

Other Name : Wright Patterson

ICAO : KFFO

IATA : FFO

FAA : FFO

Latitude : 39.826111

Longitude : -84.048332

Country : United States

Local Date and Time : 1/17/2019 10:02:00 AM

 

TAF (Terminal Aerodrome Forecast)

TAF AMD KFFO 171400Z 1714/1817 12009KT 4800 -SN BKN025 OVC030 620259 QNH3013INS BECMG 1714/1716 16009KT 4800 -SN BR OVC006 620069 QNH3006INS BECMG 1717/1718 17006KT 4800 -RASN OVC005 620089 QNH2995INS BECMG 1723/1724 16006KT 6000 -RA OVC005 620129 QNH2994INS BECMG 1803/1804 29006KT 4800 BR OVC005 620159 QNH2996INS BECMG 1813/1814 29006KT 9999 NSW OVC010 620109 QNH3009INS TX02/1721Z TNM02/1811Z

 

METAR (METeorological Aerodrome Report)

KFFO 171456Z 13007KT 1 1/2SM -SN BR BKN021 OVC028 00/M02 A3012 RMK AO2A SLP211 P0000 60000 T00041017 57017

KFFO 171356Z 11007KT 4SM -SN BR BKN026 OVC032 00/M02 A3013 RMK AO2A SLP215 P0000 T00011020

KFFO 171316Z 12006KT 4SM -SN BR OVC020 00/M02 A3015 RMK AO2A SLP221

KFFO 171256Z 12007KT 5SM BR OVC017 00/M02 A3016 RMK AO2A SLP225 T10011023

KFFO 171156Z 12004KT 10SM OVC023 00/M03 A3017 RMK AO2A CIG 021 RWY05L SLP228 4/004 T00001027 10000 21005 56019